createdAt,value
2017-12-27T00:02:33.501Z,87.88
2017-12-27T00:05:07.592Z,88.02
2017-12-27T00:07:41.919Z,88.21
2017-12-27T00:10:16.417Z,88.48
2017-12-27T00:12:50.634Z,88.47
2017-12-27T00:15:25.451Z,88.25
2017-12-27T00:18:00.667Z,88.17
2017-12-27T00:20:34.609Z,88.20
2017-12-27T00:23:09.484Z,88.54
2017-12-27T00:25:45.301Z,88.59
2017-12-27T00:41:40.775Z,87.41
2017-12-27T00:44:09.911Z,87.32
2017-12-27T00:46:38.219Z,87.28
2017-12-27T00:49:06.603Z,87.38
2017-12-27T00:51:34.928Z,87.02
2017-12-27T00:54:03.240Z,86.86
2017-12-27T00:56:32.292Z,86.98
2017-12-27T00:59:00.611Z,86.83
2017-12-27T01:01:28.919Z,86.65
2017-12-27T01:03:57.756Z,86.89
2017-12-27T01:06:26.717Z,87.20
2017-12-27T01:08:55.095Z,88.20
2017-12-27T01:11:23.481Z,88.64
2017-12-27T01:13:51.896Z,88.68
2017-12-27T01:16:20.741Z,88.92
2017-12-27T01:18:49.840Z,88.91
2017-12-27T01:21:18.549Z,88.63
2017-12-27T01:23:47.039Z,88.65
2017-12-27T01:26:15.489Z,88.62
2017-12-27T01:28:44.619Z,88.46
2017-12-27T01:31:13.576Z,88.23
2017-12-27T01:33:42.724Z,87.77
2017-12-27T01:36:11.705Z,87.78
2017-12-27T01:38:40.251Z,88.00
2017-12-27T01:41:09.695Z,87.66
2017-12-27T01:43:38.170Z,87.42
2017-12-27T01:46:06.504Z,87.15
2017-12-27T01:48:34.896Z,87.11
2017-12-27T01:51:03.800Z,86.38
2017-12-27T01:53:32.104Z,85.72
2017-12-27T01:56:01.964Z,85.12
2017-12-27T01:58:30.289Z,85.48
2017-12-27T02:00:58.625Z,85.72
2017-12-27T02:03:27.520Z,85.44
2017-12-27T02:05:56.103Z,85.15
2017-12-27T02:08:24.436Z,85.22
2017-12-27T02:10:52.847Z,85.26
2017-12-27T02:13:24.925Z,85.53
2017-12-27T02:15:53.659Z,85.93
2017-12-27T02:18:22.243Z,85.95
2017-12-27T02:20:50.568Z,85.77
2017-12-27T02:23:19.828Z,85.76
2017-12-27T02:25:48.199Z,85.93
2017-12-27T02:28:17.022Z,86.16
2017-12-27T02:30:45.836Z,86.21
2017-12-27T02:33:14.698Z,86.16
2017-12-27T02:38:41.167Z,85.44
2017-12-27T02:41:09.496Z,85.27
2017-12-27T02:43:38.755Z,84.68
2017-12-27T02:46:07.744Z,84.15
2017-12-27T02:48:36.951Z,84.47
2017-12-27T02:51:05.392Z,83.85
2017-12-27T02:53:33.765Z,83.01
2017-12-27T02:56:03.468Z,82.00
2017-12-27T02:58:31.772Z,81.33
2017-12-27T03:01:00.164Z,80.61
2017-12-27T03:03:28.479Z,80.62
2017-12-27T03:05:57.194Z,80.13
2017-12-27T03:08:25.639Z,78.86
2017-12-27T03:10:55.391Z,78.32
2017-12-27T03:13:24.185Z,78.28
2017-12-27T03:15:54.447Z,78.47
2017-12-27T03:18:23.028Z,78.18
2017-12-27T03:20:51.907Z,77.30
2017-12-27T03:23:20.887Z,77.34
2017-12-27T03:25:55.280Z,76.80
2017-12-27T03:28:23.907Z,77.30
2017-12-27T03:30:52.220Z,78.04
2017-12-27T03:33:20.591Z,76.97
2017-12-27T03:35:49.457Z,76.18
2017-12-27T03:38:17.892Z,76.70
2017-12-27T03:40:46.200Z,77.03
2017-12-27T03:43:15.063Z,76.04
2017-12-27T03:45:43.569Z,75.82
2017-12-27T03:48:12.504Z,75.32
2017-12-27T03:50:41.827Z,74.77
2017-12-27T03:53:11.029Z,73.13
2017-12-27T03:55:39.332Z,71.69
2017-12-27T03:58:07.888Z,71.50
2017-12-27T04:00:42.198Z,71.46
2017-12-27T04:03:10.690Z,71.52
2017-12-27T04:05:39.787Z,71.28
2017-12-27T04:08:08.100Z,71.70
2017-12-27T04:10:36.505Z,71.55
2017-12-27T04:13:04.820Z,71.22
2017-12-27T04:15:33.477Z,71.55
2017-12-27T04:18:02.632Z,71.47
2017-12-27T04:20:30.940Z,72.23
2017-12-27T04:23:00.112Z,70.37
2017-12-27T04:25:29.124Z,71.29
2017-12-27T04:27:58.990Z,71.28
2017-12-27T04:30:27.399Z,69.33
2017-12-27T04:32:56.201Z,69.09
2017-12-27T04:35:24.544Z,67.84
2017-12-27T04:37:53.211Z,67.24
2017-12-27T04:40:21.675Z,66.77
2017-12-27T04:42:50.531Z,66.87
2017-12-27T04:45:19.535Z,66.25
2017-12-27T04:47:48.523Z,66.56
2017-12-27T04:50:16.940Z,66.08
2017-12-27T04:52:45.256Z,66.69
2017-12-27T04:55:13.616Z,66.82
2017-12-27T04:57:42.445Z,68.32
2017-12-27T05:00:11.211Z,66.47
2017-12-27T05:02:39.932Z,65.97
2017-12-27T05:05:08.245Z,65.30
2017-12-27T05:07:36.556Z,66.09
2017-12-27T05:10:04.912Z,64.84
2017-12-27T05:12:33.227Z,64.46
2017-12-27T05:15:01.560Z,63.86
2017-12-27T05:17:30.440Z,63.57
2017-12-27T05:19:59.395Z,62.60
2017-12-27T05:22:28.706Z,62.59
2017-12-27T05:24:57.583Z,62.03
2017-12-27T05:27:26.603Z,61.47
2017-12-27T05:29:54.951Z,61.53
2017-12-27T05:32:24.974Z,60.79
2017-12-27T05:34:53.767Z,61.00
2017-12-27T05:37:22.335Z,60.79
2017-12-27T05:39:51.436Z,61.26
2017-12-27T05:42:19.756Z,61.96
2017-12-27T05:44:48.077Z,63.65
2017-12-27T05:47:16.440Z,64.37
2017-12-27T05:49:45.261Z,66.37
2017-12-27T05:52:13.595Z,66.84
2017-12-27T05:54:41.959Z,67.02
2017-12-27T05:57:10.319Z,67.64
2017-12-27T05:59:40.108Z,67.74
2017-12-27T06:02:08.940Z,68.72
2017-12-27T06:04:37.339Z,68.66
2017-12-27T06:07:05.648Z,68.80
2017-12-27T06:09:34.012Z,69.49
2017-12-27T06:12:02.416Z,69.95
2017-12-27T06:14:30.845Z,70.17
2017-12-27T06:16:59.590Z,70.76
2017-12-27T06:19:28.675Z,71.34
2017-12-27T06:21:57.728Z,71.15
2017-12-27T06:24:26.100Z,71.39
2017-12-27T06:26:55.089Z,71.17
2017-12-27T06:29:23.399Z,71.13
2017-12-27T06:31:51.787Z,71.36
2017-12-27T06:34:20.106Z,70.77
2017-12-27T06:36:48.471Z,70.36
2017-12-27T06:39:17.367Z,70.58
2017-12-27T06:41:46.402Z,70.69
2017-12-27T06:44:15.180Z,70.90
2017-12-27T06:46:43.796Z,70.93
2017-12-27T06:49:12.095Z,71.56
2017-12-27T06:51:40.431Z,71.63
2017-12-27T06:54:08.831Z,72.24
2017-12-27T06:56:37.135Z,72.32
2017-12-27T06:59:06.218Z,73.08
2017-12-27T07:01:34.600Z,73.63
2017-12-27T07:04:03.360Z,72.87
2017-12-27T07:06:31.668Z,72.58
2017-12-27T07:09:00.216Z,72.87
2017-12-27T07:11:28.978Z,73.26
2017-12-27T07:13:58.227Z,73.30
2017-12-27T07:16:27.111Z,73.33
2017-12-27T07:18:55.956Z,73.34
2017-12-27T07:21:24.576Z,72.41
2017-12-27T07:23:53.509Z,72.32
2017-12-27T07:26:22.584Z,72.30
2017-12-27T07:28:51.060Z,71.57
2017-12-27T07:33:55.103Z,72.23
2017-12-27T07:36:23.395Z,71.88
2017-12-27T07:38:51.707Z,70.62
2017-12-27T07:41:20.743Z,69.59
2017-12-27T07:43:49.840Z,69.66
2017-12-27T07:46:18.233Z,70.17
2017-12-27T07:48:47.367Z,70.64
2017-12-27T07:51:16.440Z,69.74
2017-12-27T07:53:45.227Z,70.12
2017-12-27T07:56:15.143Z,69.06
2017-12-27T07:58:44.283Z,69.37
2017-12-27T08:01:13.186Z,69.32
2017-12-27T08:03:42.474Z,69.69
2017-12-27T08:06:10.779Z,69.04
2017-12-27T08:08:39.104Z,69.28
2017-12-27T08:11:07.495Z,69.00
2017-12-27T08:13:38.563Z,68.05
2017-12-27T08:16:08.731Z,68.12
2017-12-27T08:18:37.073Z,67.78
2017-12-27T08:21:05.499Z,67.04
2017-12-27T08:23:34.652Z,66.87
2017-12-27T08:26:03.163Z,66.51
2017-12-27T08:28:31.932Z,66.31
2017-12-27T08:31:00.264Z,66.44
2017-12-27T08:33:30.012Z,66.01
2017-12-27T08:35:59.031Z,65.63
2017-12-27T08:38:28.309Z,64.88
2017-12-27T08:40:56.787Z,64.38
2017-12-27T08:43:25.782Z,64.58
2017-12-27T08:45:54.625Z,64.38
2017-12-27T08:48:22.995Z,64.29
2017-12-27T08:50:52.023Z,64.15
2017-12-27T08:53:21.090Z,64.36
2017-12-27T08:55:50.323Z,64.91
2017-12-27T08:58:19.000Z,66.06
2017-12-27T09:00:47.616Z,67.67
2017-12-27T09:03:16.922Z,68.77
2017-12-27T09:05:45.709Z,68.70
2017-12-27T09:08:14.537Z,69.26
2017-12-27T09:10:43.406Z,70.07
2017-12-27T09:13:11.752Z,69.47
2017-12-27T09:15:40.077Z,68.22
2017-12-27T09:18:08.436Z,68.62
2017-12-27T09:20:37.580Z,68.66
2017-12-27T09:23:05.880Z,68.68
2017-12-27T09:25:34.283Z,69.47
2017-12-27T09:28:03.546Z,69.36
2017-12-27T09:30:32.585Z,68.99
2017-12-27T09:33:00.988Z,69.03
2017-12-27T09:35:30.141Z,68.74
2017-12-27T09:37:59.439Z,68.36
2017-12-27T09:40:28.004Z,67.99
2017-12-27T09:42:57.253Z,68.05
2017-12-27T09:45:25.571Z,67.72
2017-12-27T09:47:54.027Z,67.90
2017-12-27T09:50:23.124Z,67.75
2017-12-27T09:52:51.440Z,67.09
2017-12-27T09:55:19.812Z,67.81
2017-12-27T09:57:48.559Z,68.42
2017-12-27T10:00:16.883Z,68.32
2017-12-27T10:02:45.955Z,68.17
2017-12-27T10:05:14.284Z,67.00
2017-12-27T10:07:42.583Z,66.33
2017-12-27T10:10:11.600Z,65.43
2017-12-27T10:12:40.717Z,64.89
2017-12-27T10:15:15.684Z,64.45
2017-12-27T10:17:44.372Z,64.31
2017-12-27T10:20:12.877Z,63.74
2017-12-27T10:22:41.264Z,64.93
2017-12-27T10:25:10.269Z,64.77
2017-12-27T10:27:38.584Z,63.90
2017-12-27T10:30:07.733Z,62.53
2017-12-27T10:32:36.051Z,62.60
2017-12-27T10:35:04.983Z,62.74
2017-12-27T10:37:34.150Z,62.52
2017-12-27T10:40:02.475Z,62.62
2017-12-27T10:42:30.967Z,62.51
2017-12-27T10:44:59.797Z,61.13
2017-12-27T10:47:28.584Z,61.34
2017-12-27T10:49:57.140Z,60.03
2017-12-27T10:52:25.539Z,58.96
2017-12-27T10:54:54.524Z,60.40
2017-12-27T10:57:23.564Z,60.76
2017-12-27T10:59:52.181Z,59.89
2017-12-27T11:02:21.107Z,59.37
2017-12-27T11:04:49.466Z,57.84
2017-12-27T11:07:17.836Z,57.11
2017-12-27T11:09:49.155Z,56.68
2017-12-27T11:12:18.144Z,55.25
2017-12-27T11:14:47.398Z,54.34
2017-12-27T11:17:16.404Z,53.92
2017-12-27T11:19:45.375Z,54.31
2017-12-27T11:22:16.983Z,53.38
2017-12-27T11:24:45.596Z,54.11
2017-12-27T11:27:13.935Z,53.18
2017-12-27T11:29:42.637Z,53.25
2017-12-27T11:32:11.760Z,54.46
2017-12-27T11:34:40.848Z,55.62
2017-12-27T11:37:10.147Z,56.40
2017-12-27T11:39:39.058Z,54.99
2017-12-27T11:42:08.334Z,54.21
2017-12-27T11:47:12.431Z,53.46
2017-12-27T11:49:47.851Z,53.06
2017-12-27T11:52:19.397Z,53.25
2017-12-27T11:54:50.919Z,53.92
2017-12-27T11:57:23.084Z,54.28
2017-12-27T11:59:53.298Z,52.18
2017-12-27T12:02:21.942Z,53.06
2017-12-27T12:04:56.208Z,52.29
2017-12-27T12:07:28.735Z,53.11
2017-12-27T12:10:00.317Z,53.70
2017-12-27T12:12:28.933Z,53.26
2017-12-27T12:14:57.517Z,53.29
2017-12-27T12:17:26.035Z,53.43
2017-12-27T12:19:54.857Z,53.77
2017-12-27T12:22:24.119Z,54.58
2017-12-27T12:24:52.440Z,55.16
2017-12-27T12:27:20.768Z,55.07
2017-12-27T12:29:49.148Z,55.56
2017-12-27T12:32:17.459Z,56.22
2017-12-27T12:34:47.973Z,55.75
2017-12-27T12:37:16.911Z,55.05
2017-12-27T12:39:46.061Z,55.75
2017-12-27T12:42:15.079Z,56.50
2017-12-27T12:44:43.501Z,57.27
2017-12-27T12:47:13.950Z,58.91
2017-12-27T12:49:44.823Z,61.63
2017-12-27T12:52:14.961Z,61.29
2017-12-27T12:54:43.684Z,61.03
2017-12-27T12:57:12.119Z,60.21
2017-12-27T12:59:41.401Z,59.71
2017-12-27T13:02:10.300Z,60.16
2017-12-27T13:04:39.569Z,59.94
2017-12-27T13:07:07.996Z,59.76
2017-12-27T13:09:36.385Z,60.95
2017-12-27T13:12:04.867Z,61.92
2017-12-27T13:14:34.119Z,62.78
2017-12-27T13:17:02.580Z,63.68
2017-12-27T13:19:31.067Z,64.72
2017-12-27T13:21:59.787Z,66.35
2017-12-27T13:24:28.936Z,67.55
2017-12-27T13:26:57.460Z,68.42
2017-12-27T13:29:26.543Z,69.81
2017-12-27T13:31:55.015Z,70.98
2017-12-27T13:34:24.288Z,72.46
2017-12-27T13:36:53.518Z,72.62
2017-12-27T13:39:24.126Z,74.04
2017-12-27T13:41:53.171Z,75.04
2017-12-27T13:44:22.431Z,77.12
2017-12-27T13:46:52.343Z,76.30
2017-12-27T13:49:22.907Z,76.18
2017-12-27T13:51:52.065Z,75.87
2017-12-27T13:54:21.764Z,77.17
2017-12-27T13:56:50.092Z,78.12
2017-12-27T13:59:19.974Z,79.10
2017-12-27T14:01:48.435Z,79.52
2017-12-27T14:04:17.079Z,80.12
2017-12-27T14:06:50.048Z,78.38
2017-12-27T14:09:22.178Z,79.32
2017-12-27T14:11:54.033Z,79.35
2017-12-27T14:14:23.950Z,79.23
2017-12-27T14:16:56.167Z,80.12
2017-12-27T14:19:25.141Z,79.93
2017-12-27T14:21:54.345Z,80.51
2017-12-27T14:24:23.395Z,80.37
2017-12-27T14:26:51.800Z,81.47
2017-12-27T14:29:21.085Z,82.70
2017-12-27T14:31:52.284Z,83.93
2017-12-27T14:34:21.424Z,85.11
2017-12-27T14:36:49.840Z,85.10
2017-12-27T14:39:19.007Z,84.73
2017-12-27T14:41:47.923Z,84.84
2017-12-27T14:44:17.583Z,83.33
2017-12-27T14:46:46.270Z,81.32
2017-12-27T14:49:15.176Z,79.24
2017-12-27T14:51:44.257Z,79.33
2017-12-27T14:54:12.607Z,79.69
2017-12-27T14:56:41.115Z,79.95
2017-12-27T14:59:10.048Z,80.68
2017-12-27T15:01:39.159Z,81.18
2017-12-27T15:04:07.487Z,81.82
2017-12-27T15:06:35.828Z,82.40
2017-12-27T15:09:04.659Z,82.65
2017-12-27T15:11:33.918Z,82.85
2017-12-27T15:14:03.011Z,82.82
2017-12-27T15:16:31.628Z,83.30
2017-12-27T15:19:02.728Z,83.49
2017-12-27T15:21:32.495Z,83.71
2017-12-27T15:24:02.483Z,84.13
2017-12-27T15:26:30.964Z,84.25
2017-12-27T15:28:59.054Z,84.71
2017-12-27T15:31:27.417Z,84.80
2017-12-27T15:33:56.463Z,85.01
2017-12-27T15:36:25.255Z,85.12
2017-12-27T15:38:53.801Z,85.08
2017-12-27T15:41:22.225Z,85.24
2017-12-27T15:43:52.623Z,85.49
2017-12-27T15:46:21.972Z,85.31
2017-12-27T15:48:51.071Z,85.47
2017-12-27T15:51:21.008Z,85.53
2017-12-27T15:56:56.981Z,86.03
2017-12-27T15:59:26.079Z,85.94
2017-12-27T16:01:54.936Z,86.05
2017-12-27T16:04:24.077Z,86.11
2017-12-27T16:06:52.836Z,85.66
2017-12-27T16:09:22.428Z,85.70
2017-12-27T16:11:50.835Z,85.80
2017-12-27T16:14:21.353Z,86.43
2017-12-27T16:16:50.844Z,86.83
2017-12-27T16:19:20.356Z,87.28
2017-12-27T16:21:50.237Z,86.95
2017-12-27T16:24:21.184Z,87.27
2017-12-27T16:26:50.188Z,87.27
2017-12-27T16:29:24.928Z,87.40
2017-12-27T16:31:53.943Z,87.61
2017-12-27T16:34:22.262Z,87.92
2017-12-27T16:36:50.660Z,88.12
2017-12-27T16:39:19.109Z,87.80
2017-12-27T16:41:47.922Z,87.32
2017-12-27T16:44:17.039Z,86.56
2017-12-27T16:46:45.971Z,86.55
2017-12-27T16:49:14.454Z,86.30
2017-12-27T16:51:43.027Z,85.93
2017-12-27T16:54:11.732Z,85.30
2017-12-27T16:56:40.092Z,85.19
2017-12-27T16:59:08.450Z,85.11
2017-12-27T17:01:36.769Z,84.77
2017-12-27T17:04:05.140Z,84.89
2017-12-27T17:06:33.459Z,85.60
2017-12-27T17:09:01.824Z,85.56
2017-12-27T17:11:30.230Z,85.44
2017-12-27T17:13:59.602Z,85.21
2017-12-27T17:16:28.072Z,85.41
2017-12-27T17:18:56.556Z,85.50
2017-12-27T17:21:25.014Z,85.26
2017-12-27T17:23:53.445Z,84.89
2017-12-27T17:26:21.669Z,84.59
2017-12-27T17:28:50.056Z,84.00
2017-12-27T17:31:18.564Z,84.26
2017-12-27T17:33:46.965Z,84.58
2017-12-27T17:36:15.311Z,84.79
2017-12-27T17:38:43.620Z,85.87
2017-12-27T17:41:12.006Z,86.19
2017-12-27T17:43:40.349Z,86.78
2017-12-27T17:46:08.731Z,87.32
2017-12-27T17:48:37.171Z,87.09
2017-12-27T17:51:05.517Z,87.14
2017-12-27T17:53:33.875Z,87.79
2017-12-27T17:56:02.317Z,88.79
2017-12-27T17:58:30.693Z,88.60
2017-12-27T18:00:59.063Z,88.18
2017-12-27T18:03:27.439Z,87.97
2017-12-27T18:05:55.941Z,87.89
2017-12-27T18:08:25.482Z,87.51
2017-12-27T18:10:53.846Z,86.64
2017-12-27T18:13:22.251Z,85.54
2017-12-27T18:15:50.628Z,86.00
2017-12-27T18:18:19.002Z,86.56
2017-12-27T18:20:47.539Z,86.43
2017-12-27T18:23:15.983Z,86.46
2017-12-27T18:25:44.343Z,86.52
2017-12-27T18:28:12.749Z,86.77
2017-12-27T18:30:41.112Z,86.90
2017-12-27T18:33:09.563Z,86.89
2017-12-27T18:35:37.963Z,86.99
2017-12-27T18:38:06.379Z,86.90
2017-12-27T18:40:34.751Z,86.72
2017-12-27T18:43:03.241Z,86.68
2017-12-27T18:45:31.619Z,86.85
2017-12-27T18:48:00.095Z,86.95
2017-12-27T18:50:29.355Z,87.20
2017-12-27T18:52:57.723Z,87.06
2017-12-27T18:55:26.146Z,87.23
2017-12-27T18:57:55.308Z,87.60
2017-12-27T19:00:23.690Z,87.89
2017-12-27T19:02:52.060Z,87.95
2017-12-27T19:05:20.491Z,88.05
2017-12-27T19:07:49.755Z,87.95
2017-12-27T19:10:18.117Z,87.61
2017-12-27T19:12:46.496Z,87.30
2017-12-27T19:15:14.898Z,87.21
2017-12-27T19:17:43.395Z,87.52
2017-12-27T19:20:11.762Z,87.59
2017-12-27T19:22:40.646Z,87.60
2017-12-27T19:25:09.134Z,87.53
2017-12-27T19:27:42.987Z,87.44
2017-12-27T19:30:13.003Z,87.05
2017-12-27T19:32:41.988Z,87.18
2017-12-27T19:35:11.209Z,86.58
2017-12-27T19:37:40.277Z,86.36
2017-12-27T19:40:08.830Z,85.85
2017-12-27T19:42:38.371Z,85.84
2017-12-27T19:45:07.428Z,86.49
2017-12-27T19:47:36.519Z,86.46
2017-12-27T19:50:05.005Z,86.10
2017-12-27T19:52:33.919Z,85.77
2017-12-27T19:55:02.983Z,85.45
2017-12-27T19:57:32.466Z,85.34
2017-12-27T20:00:01.190Z,85.51
2017-12-27T20:02:30.343Z,84.73
2017-12-27T20:04:59.479Z,83.96
2017-12-27T20:07:28.461Z,83.74
2017-12-27T20:09:57.013Z,83.41
2017-12-27T20:12:25.870Z,83.43
2017-12-27T20:15:00.106Z,83.14
2017-12-27T20:17:31.879Z,83.27
2017-12-27T20:20:00.554Z,82.79
2017-12-27T20:22:29.717Z,82.83
2017-12-27T20:24:58.846Z,82.81
2017-12-27T20:27:27.870Z,83.37
2017-12-27T20:29:56.847Z,82.98
2017-12-27T20:32:25.776Z,82.81
2017-12-27T20:34:54.241Z,82.54
2017-12-27T20:37:22.939Z,82.74
2017-12-27T20:39:51.297Z,82.73
2017-12-27T20:42:19.650Z,82.81
2017-12-27T20:44:55.516Z,82.90
2017-12-27T20:47:23.871Z,82.82
2017-12-27T20:49:52.226Z,82.77
2017-12-27T20:52:20.758Z,83.11
2017-12-27T20:54:49.167Z,83.72
2017-12-27T20:57:17.528Z,83.22
2017-12-27T20:59:46.027Z,83.34
2017-12-27T21:02:14.386Z,83.03
2017-12-27T21:04:42.737Z,83.67
2017-12-27T21:07:11.170Z,83.24
2017-12-27T21:09:39.562Z,83.49
2017-12-27T21:12:08.691Z,83.06
2017-12-27T21:14:37.122Z,83.22
2017-12-27T21:17:05.479Z,83.45
2017-12-27T21:19:33.836Z,83.09
2017-12-27T21:22:02.231Z,83.47
2017-12-27T21:24:30.587Z,83.69
2017-12-27T21:26:58.943Z,83.67
2017-12-27T21:29:27.363Z,83.75
2017-12-27T21:31:55.825Z,83.29
2017-12-27T21:34:24.187Z,83.04
2017-12-27T21:36:52.622Z,82.59
2017-12-27T21:39:20.979Z,82.50
2017-12-27T21:41:49.342Z,82.73
2017-12-27T21:44:17.771Z,82.67
2017-12-27T21:46:46.193Z,82.16
2017-12-27T21:49:20.810Z,81.87
2017-12-27T21:51:49.166Z,82.40
2017-12-27T21:54:17.531Z,82.26
2017-12-27T21:56:45.946Z,81.97
2017-12-27T21:59:19.852Z,81.73
2017-12-27T22:01:49.055Z,81.51
2017-12-27T22:04:17.407Z,80.96
2017-12-27T22:06:46.513Z,80.80
2017-12-27T22:09:15.698Z,80.41
2017-12-27T22:11:44.056Z,79.88
2017-12-27T22:14:12.418Z,78.16
2017-12-27T22:16:40.839Z,76.84
2017-12-27T22:19:09.962Z,75.15
2017-12-27T22:21:38.327Z,73.56
2017-12-27T22:24:06.751Z,72.72
2017-12-27T22:26:35.164Z,72.89
2017-12-27T22:29:03.522Z,72.76
2017-12-27T22:31:31.997Z,73.02
2017-12-27T22:34:01.234Z,73.11
2017-12-27T22:36:29.882Z,73.64
2017-12-27T22:38:59.271Z,73.52
2017-12-27T22:41:28.335Z,73.89
2017-12-27T22:43:56.968Z,74.86
2017-12-27T22:46:25.715Z,75.44
2017-12-27T22:48:54.922Z,75.70
2017-12-27T22:51:24.063Z,76.36
2017-12-27T22:53:53.110Z,76.15
2017-12-27T22:56:22.035Z,76.55
2017-12-27T22:58:50.391Z,76.97
2017-12-27T23:01:19.496Z,77.34
2017-12-27T23:03:47.867Z,77.82
2017-12-27T23:06:16.972Z,79.02
2017-12-27T23:08:46.025Z,78.24
2017-12-27T23:11:14.982Z,78.92
2017-12-27T23:13:44.238Z,79.05
2017-12-27T23:16:13.371Z,79.10
2017-12-27T23:18:42.267Z,79.65
2017-12-27T23:21:10.994Z,79.83
2017-12-27T23:23:40.618Z,80.36
2017-12-27T23:26:09.066Z,80.67
2017-12-27T23:28:37.474Z,81.03
2017-12-27T23:31:05.918Z,81.10
2017-12-27T23:33:34.332Z,81.73
2017-12-27T23:36:02.717Z,81.83
2017-12-27T23:38:31.780Z,81.50
2017-12-27T23:41:00.966Z,81.47
2017-12-27T23:43:29.324Z,81.51
2017-12-27T23:45:57.680Z,80.94
2017-12-27T23:48:26.070Z,80.91
2017-12-27T23:50:54.425Z,81.47
2017-12-27T23:53:22.773Z,81.18
2017-12-27T23:55:51.181Z,81.39
2017-12-27T23:58:19.500Z,81.76
